sensor_id;sensor_type;location;lat;lon;timestamp;temperature;humidity
21805;DHT22;11064;47.102;15.452;2023-04-06T04:01:44;-3.30;99.90
21805;DHT22;11064;47.102;15.452;2023-04-06T04:04:10;-3.40;99.90
21805;DHT22;11064;47.102;15.452;2023-04-06T04:06:36;-3.50;99.90
21805;DHT22;11064;47.102;15.452;2023-04-06T04:09:02;-3.60;99.90
21805;DHT22;11064;47.102;15.452;2023-04-06T04:11:28;-3.60;99.90
21805;DHT22;11064;47.102;15.452;2023-04-06T04:13:54;-3.50;99.90
21805;DHT22;11064;47.102;15.452;2023-04-06T04:16:19;-3.50;99.90
21805;DHT22;11064;47.102;15.452;2023-04-06T04:18:45;-3.50;99.90
21805;DHT22;11064;47.102;15.452;2023-04-06T04:21:12;-3.50;99.90
21805;DHT22;11064;47.102;15.452;2023-04-06T04:23:38;-3.40;99.90
21805;DHT22;11064;47.102;15.452;2023-04-06T04:26:04;-3.40;99.90
21805;DHT22;11064;47.102;15.452;2023-04-06T04:28:30;-3.40;99.90
21805;DHT22;11064;47.102;15.452;2023-04-06T04:30:56;-3.40;99.90
21805;DHT22;11064;47.102;15.452;2023-04-06T04:33:22;-3.40;99.90
21805;DHT22;11064;47.102;15.452;2023-04-06T04:35:48;-3.30;99.90
21805;DHT22;11064;47.102;15.452;2023-04-06T04:38:13;-3.30;99.90
21805;DHT22;11064;47.102;15.452;2023-04-06T04:40:40;-3.30;99.90
21805;DHT22;11064;47.102;15.452;2023-04-06T04:43:06;-3.20;99.90
21805;DHT22;11064;47.102;15.452;2023-04-06T04:45:31;-3.20;99.90
21805;DHT22;11064;47.102;15.452;2023-04-06T04:47:57;-3.10;99.90
21805;DHT22;11064;47.102;15.452;2023-04-06T04:50:23;-3.10;99.90
21805;DHT22;11064;47.102;15.452;2023-04-06T04:52:49;-3.10;99.90
21805;DHT22;11064;47.102;15.452;2023-04-06T04:55:15;-3.10;99.90
21805;DHT22;11064;47.102;15.452;2023-04-06T04:57:40;-3.00;99.90
21805;DHT22;11064;47.102;15.452;2023-04-06T05:00:07;-3.10;99.90
21805;DHT22;11064;47.102;15.452;2023-04-06T05:02:33;-3.00;99.90
21805;DHT22;11064;47.102;15.452;2023-04-06T05:04:59;-3.00;99.90
21805;DHT22;11064;47.102;15.452;2023-04-06T05:07:24;-3.00;99.90
21805;DHT22;11064;47.102;15.452;2023-04-06T05:09:50;-2.90;99.90
21805;DHT22;11064;47.102;15.452;2023-04-06T05:12:16;-2.90;99.90
21805;DHT22;11064;47.102;15.452;2023-04-06T05:14:42;-2.90;99.90
21805;DHT22;11064;47.102;15.452;2023-04-06T05:17:08;-2.80;99.90
21805;DHT22;11064;47.102;15.452;2023-04-06T05:19:34;-2.70;99.90
21805;DHT22;11064;47.102;15.452;2023-04-06T05:22:00;-2.60;99.90
21805;DHT22;11064;47.102;15.452;2023-04-06T05:24:26;-2.50;99.90
21805;DHT22;11064;47.102;15.452;2023-04-06T05:26:52;-2.40;99.90
21805;DHT22;11064;47.102;15.452;2023-04-06T05:29:18;-2.30;99.90
21805;DHT22;11064;47.102;15.452;2023-04-06T05:31:45;-2.30;99.90
21805;DHT22;11064;47.102;15.452;2023-04-06T05:34:11;-2.20;99.90
21805;DHT22;11064;47.102;15.452;2023-04-06T05:36:38;-2.20;99.90
21805;DHT22;11064;47.102;15.452;2023-04-06T05:39:04;-2.10;99.90
21805;DHT22;11064;47.102;15.452;2023-04-06T05:41:30;-2.00;99.90
21805;DHT22;11064;47.102;15.452;2023-04-06T05:43:56;-2.00;99.90
21805;DHT22;11064;47.102;15.452;2023-04-06T05:46:22;-1.90;99.80
21805;DHT22;11064;47.102;15.452;2023-04-06T05:48:47;-1.80;99.40
21805;DHT22;11064;47.102;15.452;2023-04-06T05:51:13;-1.70;99.30
21805;DHT22;11064;47.102;15.452;2023-04-06T05:53:39;-1.60;98.90
21805;DHT22;11064;47.102;15.452;2023-04-06T05:56:05;-1.50;98.80
21805;DHT22;11064;47.102;15.452;2023-04-06T05:58:31;-1.40;98.60
21805;DHT22;11064;47.102;15.452;2023-04-06T06:00:58;-1.30;98.40
21805;DHT22;11064;47.102;15.452;2023-04-06T06:03:25;-1.30;98.50
21805;DHT22;11064;47.102;15.452;2023-04-06T06:05:51;-1.20;98.00
21805;DHT22;11064;47.102;15.452;2023-04-06T06:08:16;-1.10;98.90
21805;DHT22;11064;47.102;15.452;2023-04-06T06:10:42;-1.00;99.10
21805;DHT22;11064;47.102;15.452;2023-04-06T06:13:08;-1.00;97.80
21805;DHT22;11064;47.102;15.452;2023-04-06T06:15:35;-0.80;97.70
21805;DHT22;11064;47.102;15.452;2023-04-06T06:18:00;-0.70;96.80
21805;DHT22;11064;47.102;15.452;2023-04-06T06:20:27;-0.50;96.40
21805;DHT22;11064;47.102;15.452;2023-04-06T06:22:53;-0.40;95.70
21805;DHT22;11064;47.102;15.452;2023-04-06T06:25:19;-0.20;94.90
21805;DHT22;11064;47.102;15.452;2023-04-06T06:27:44;-0.10;94.20
21805;DHT22;11064;47.102;15.452;2023-04-06T06:30:10;0.10;94.40
21805;DHT22;11064;47.102;15.452;2023-04-06T06:32:36;0.30;93.70
21805;DHT22;11064;47.102;15.452;2023-04-06T06:35:02;0.40;92.80
21805;DHT22;11064;47.102;15.452;2023-04-06T06:37:28;0.60;92.80
21805;DHT22;11064;47.102;15.452;2023-04-06T06:39:54;0.70;92.30
21805;DHT22;11064;47.102;15.452;2023-04-06T06:42:19;0.80;91.80
21805;DHT22;11064;47.102;15.452;2023-04-06T06:44:45;1.00;91.80
21805;DHT22;11064;47.102;15.452;2023-04-06T06:47:11;1.20;90.70
21805;DHT22;11064;47.102;15.452;2023-04-06T06:49:37;1.30;90.40
21805;DHT22;11064;47.102;15.452;2023-04-06T06:52:03;1.40;90.50
21805;DHT22;11064;47.102;15.452;2023-04-06T06:54:29;1.60;89.50
21805;DHT22;11064;47.102;15.452;2023-04-06T06:56:55;1.70;88.70
21805;DHT22;11064;47.102;15.452;2023-04-06T06:59:20;1.90;87.30
21805;DHT22;11064;47.102;15.452;2023-04-06T07:01:46;2.00;86.80
21805;DHT22;11064;47.102;15.452;2023-04-06T07:04:12;2.20;86.60
21805;DHT22;11064;47.102;15.452;2023-04-06T07:06:38;2.30;86.70
21805;DHT22;11064;47.102;15.452;2023-04-06T07:09:04;2.50;83.30
21805;DHT22;11064;47.102;15.452;2023-04-06T07:11:30;2.60;81.90
21805;DHT22;11064;47.102;15.452;2023-04-06T07:13:56;2.70;81.70
21805;DHT22;11064;47.102;15.452;2023-04-06T07:16:21;2.90;82.20
21805;DHT22;11064;47.102;15.452;2023-04-06T07:18:47;3.00;78.20
21805;DHT22;11064;47.102;15.452;2023-04-06T07:21:13;3.10;77.60
21805;DHT22;11064;47.102;15.452;2023-04-06T07:23:39;3.30;77.80
21805;DHT22;11064;47.102;15.452;2023-04-06T07:26:05;3.50;77.00
21805;DHT22;11064;47.102;15.452;2023-04-06T07:28:31;3.60;76.00
21805;DHT22;11064;47.102;15.452;2023-04-06T07:30:57;3.70;74.70
21805;DHT22;11064;47.102;15.452;2023-04-06T07:33:22;3.70;74.10
21805;DHT22;11064;47.102;15.452;2023-04-06T07:35:48;3.80;73.60
21805;DHT22;11064;47.102;15.452;2023-04-06T07:38:14;4.00;72.80
21805;DHT22;11064;47.102;15.452;2023-04-06T07:40:40;4.10;70.90
21805;DHT22;11064;47.102;15.452;2023-04-06T07:43:05;4.20;70.50
21805;DHT22;11064;47.102;15.452;2023-04-06T07:45:31;4.30;71.70
21805;DHT22;11064;47.102;15.452;2023-04-06T07:47:57;4.30;70.70
21805;DHT22;11064;47.102;15.452;2023-04-06T07:50:23;4.30;70.30
21805;DHT22;11064;47.102;15.452;2023-04-06T07:52:49;4.50;71.80
21805;DHT22;11064;47.102;15.452;2023-04-06T07:55:15;4.70;69.10
21805;DHT22;11064;47.102;15.452;2023-04-06T07:57:40;4.70;66.70
21805;DHT22;11064;47.102;15.452;2023-04-06T08:00:07;4.70;68.20
21805;DHT22;11064;47.102;15.452;2023-04-06T08:02:35;4.90;68.30
21805;DHT22;11064;47.102;15.452;2023-04-06T08:05:01;5.10;65.90
21805;DHT22;11064;47.102;15.452;2023-04-06T08:07:27;5.20;65.40
21805;DHT22;11064;47.102;15.452;2023-04-06T08:09:52;5.30;68.50
21805;DHT22;11064;47.102;15.452;2023-04-06T08:12:18;5.50;69.20
21805;DHT22;11064;47.102;15.452;2023-04-06T08:14:44;5.60;69.10
21805;DHT22;11064;47.102;15.452;2023-04-06T08:17:10;5.60;67.30
21805;DHT22;11064;47.102;15.452;2023-04-06T08:19:35;5.60;66.50
21805;DHT22;11064;47.102;15.452;2023-04-06T08:22:02;5.60;61.40
21805;DHT22;11064;47.102;15.452;2023-04-06T08:24:28;5.60;59.90
21805;DHT22;11064;47.102;15.452;2023-04-06T08:26:54;5.70;59.50
21805;DHT22;11064;47.102;15.452;2023-04-06T08:29:20;5.80;58.90
21805;DHT22;11064;47.102;15.452;2023-04-06T08:31:46;5.80;57.50
21805;DHT22;11064;47.102;15.452;2023-04-06T08:34:12;5.90;57.90
21805;DHT22;11064;47.102;15.452;2023-04-06T08:36:38;6.00;57.20
21805;DHT22;11064;47.102;15.452;2023-04-06T08:39:03;6.10;58.80
21805;DHT22;11064;47.102;15.452;2023-04-06T08:41:29;6.10;56.40
21805;DHT22;11064;47.102;15.452;2023-04-06T08:44:00;6.20;57.10
21805;DHT22;11064;47.102;15.452;2023-04-06T08:46:28;6.40;56.40
21805;DHT22;11064;47.102;15.452;2023-04-06T08:48:57;6.40;55.80
21805;DHT22;11064;47.102;15.452;2023-04-06T08:51:24;6.20;54.90
21805;DHT22;11064;47.102;15.452;2023-04-06T08:53:53;6.20;55.40
21805;DHT22;11064;47.102;15.452;2023-04-06T08:56:25;6.40;55.80
21805;DHT22;11064;47.102;15.452;2023-04-06T08:58:53;6.50;55.90
21805;DHT22;11064;47.102;15.452;2023-04-06T09:01:22;6.70;56.70
21805;DHT22;11064;47.102;15.452;2023-04-06T09:03:49;6.70;54.20
21805;DHT22;11064;47.102;15.452;2023-04-06T09:06:17;6.50;53.80
21805;DHT22;11064;47.102;15.452;2023-04-06T09:08:43;6.40;54.60
21805;DHT22;11064;47.102;15.452;2023-04-06T09:11:10;6.50;55.40
21805;DHT22;11064;47.102;15.452;2023-04-06T09:13:53;6.60;54.10
21805;DHT22;11064;47.102;15.452;2023-04-06T09:16:20;6.70;54.50
21805;DHT22;11064;47.102;15.452;2023-04-06T09:18:46;6.80;53.50
21805;DHT22;11064;47.102;15.452;2023-04-06T09:21:13;6.80;53.70
21805;DHT22;11064;47.102;15.452;2023-04-06T09:23:39;6.90;53.60
21805;DHT22;11064;47.102;15.452;2023-04-06T09:26:13;7.00;53.50
21805;DHT22;11064;47.102;15.452;2023-04-06T09:29:21;7.00;52.70
21805;DHT22;11064;47.102;15.452;2023-04-06T09:31:35;7.00;52.70
21805;DHT22;11064;47.102;15.452;2023-04-06T09:34:01;7.20;52.70
21805;DHT22;11064;47.102;15.452;2023-04-06T09:36:34;7.30;52.60
21805;DHT22;11064;47.102;15.452;2023-04-06T09:39:04;7.50;53.10
21805;DHT22;11064;47.102;15.452;2023-04-06T09:41:36;7.40;51.00
21805;DHT22;11064;47.102;15.452;2023-04-06T09:46:38;7.60;51.40
21805;DHT22;11064;47.102;15.452;2023-04-06T09:49:05;7.50;51.00
21805;DHT22;11064;47.102;15.452;2023-04-06T09:51:36;7.60;52.20
21805;DHT22;11064;47.102;15.452;2023-04-06T09:54:03;7.60;50.80
21805;DHT22;11064;47.102;15.452;2023-04-06T09:56:56;7.60;51.00
21805;DHT22;11064;47.102;15.452;2023-04-06T10:05:05;8.00;50.10
21805;DHT22;11064;47.102;15.452;2023-04-06T10:07:33;7.90;50.50
21805;DHT22;11064;47.102;15.452;2023-04-06T10:10:02;8.00;51.30
21805;DHT22;11064;47.102;15.452;2023-04-06T10:12:28;8.30;51.30
21805;DHT22;11064;47.102;15.452;2023-04-06T10:14:54;8.40;48.80
21805;DHT22;11064;47.102;15.452;2023-04-06T10:17:21;8.40;49.20
21805;DHT22;11064;47.102;15.452;2023-04-06T10:20:02;8.60;49.10
21805;DHT22;11064;47.102;15.452;2023-04-06T10:25:09;8.70;47.60
21805;DHT22;11064;47.102;15.452;2023-04-06T10:27:35;8.40;47.40
21805;DHT22;11064;47.102;15.452;2023-04-06T10:30:05;8.30;48.30
21805;DHT22;11064;47.102;15.452;2023-04-06T10:32:35;8.40;48.80
21805;DHT22;11064;47.102;15.452;2023-04-06T10:35:09;8.60;48.20
21805;DHT22;11064;47.102;15.452;2023-04-06T10:38:03;8.80;47.50
21805;DHT22;11064;47.102;15.452;2023-04-06T10:40:29;8.80;47.10
21805;DHT22;11064;47.102;15.452;2023-04-06T10:43:10;9.00;47.50
21805;DHT22;11064;47.102;15.452;2023-04-06T10:45:37;9.20;48.10
21805;DHT22;11064;47.102;15.452;2023-04-06T10:48:17;9.40;48.30
21805;DHT22;11064;47.102;15.452;2023-04-06T10:50:51;9.50;46.90
21805;DHT22;11064;47.102;15.452;2023-04-06T10:53:27;9.60;46.30
21805;DHT22;11064;47.102;15.452;2023-04-06T10:55:56;9.70;46.10
21805;DHT22;11064;47.102;15.452;2023-04-06T10:58:26;9.40;45.10
21805;DHT22;11064;47.102;15.452;2023-04-06T11:00:54;9.50;45.40
21805;DHT22;11064;47.102;15.452;2023-04-06T11:03:21;9.70;47.00
21805;DHT22;11064;47.102;15.452;2023-04-06T11:05:50;9.90;46.30
21805;DHT22;11064;47.102;15.452;2023-04-06T11:08:29;9.90;44.90
21805;DHT22;11064;47.102;15.452;2023-04-06T11:11:11;9.80;44.50
21805;DHT22;11064;47.102;15.452;2023-04-06T11:13:48;9.60;44.90
21805;DHT22;11064;47.102;15.452;2023-04-06T11:16:16;9.60;44.70
21805;DHT22;11064;47.102;15.452;2023-04-06T11:21:20;9.70;45.60
21805;DHT22;11064;47.102;15.452;2023-04-06T11:23:46;9.80;46.10
21805;DHT22;11064;47.102;15.452;2023-04-06T11:26:13;9.90;45.40
21805;DHT22;11064;47.102;15.452;2023-04-06T11:28:41;10.00;44.90
21805;DHT22;11064;47.102;15.452;2023-04-06T11:31:10;9.80;44.10
21805;DHT22;11064;47.102;15.452;2023-04-06T11:33:37;9.90;44.70
21805;DHT22;11064;47.102;15.452;2023-04-06T11:36:06;10.00;44.80
21805;DHT22;11064;47.102;15.452;2023-04-06T11:38:32;9.80;43.30
21805;DHT22;11064;47.102;15.452;2023-04-06T11:40:58;9.60;43.60
21805;DHT22;11064;47.102;15.452;2023-04-06T11:43:30;9.50;43.90
21805;DHT22;11064;47.102;15.452;2023-04-06T11:46:03;9.70;44.90
21805;DHT22;11064;47.102;15.452;2023-04-06T11:48:30;9.80;44.70
21805;DHT22;11064;47.102;15.452;2023-04-06T11:50:57;10.00;44.10
21805;DHT22;11064;47.102;15.452;2023-04-06T11:53:25;10.00;44.90
21805;DHT22;11064;47.102;15.452;2023-04-06T11:55:51;10.00;43.30
21805;DHT22;11064;47.102;15.452;2023-04-06T11:58:17;10.20;44.40
21805;DHT22;11064;47.102;15.452;2023-04-06T12:00:43;10.00;43.80
21805;DHT22;11064;47.102;15.452;2023-04-06T12:03:11;10.00;42.90
21805;DHT22;11064;47.102;15.452;2023-04-06T12:05:38;10.00;43.10
21805;DHT22;11064;47.102;15.452;2023-04-06T12:08:04;9.90;42.60
21805;DHT22;11064;47.102;15.452;2023-04-06T12:10:30;10.10;44.90
21805;DHT22;11064;47.102;15.452;2023-04-06T12:12:56;10.00;43.10
21805;DHT22;11064;47.102;15.452;2023-04-06T12:15:22;10.00;43.20
21805;DHT22;11064;47.102;15.452;2023-04-06T12:17:48;10.00;43.70
21805;DHT22;11064;47.102;15.452;2023-04-06T12:20:15;10.20;44.40
21805;DHT22;11064;47.102;15.452;2023-04-06T12:22:41;10.40;43.00
21805;DHT22;11064;47.102;15.452;2023-04-06T12:25:07;10.50;41.90
21805;DHT22;11064;47.102;15.452;2023-04-06T12:27:33;10.60;42.60
21805;DHT22;11064;47.102;15.452;2023-04-06T12:29:58;10.60;42.10
21805;DHT22;11064;47.102;15.452;2023-04-06T12:32:24;10.60;41.50
21805;DHT22;11064;47.102;15.452;2023-04-06T12:34:53;10.40;42.80
21805;DHT22;11064;47.102;15.452;2023-04-06T12:37:19;10.60;42.80
21805;DHT22;11064;47.102;15.452;2023-04-06T12:39:46;10.60;41.70
21805;DHT22;11064;47.102;15.452;2023-04-06T12:42:12;10.60;42.10
21805;DHT22;11064;47.102;15.452;2023-04-06T12:44:39;10.70;43.00
21805;DHT22;11064;47.102;15.452;2023-04-06T12:47:05;10.80;42.00
21805;DHT22;11064;47.102;15.452;2023-04-06T12:49:32;10.80;41.30
21805;DHT22;11064;47.102;15.452;2023-04-06T12:51:58;10.80;41.80
21805;DHT22;11064;47.102;15.452;2023-04-06T12:54:24;10.90;41.70
21805;DHT22;11064;47.102;15.452;2023-04-06T12:56:52;10.90;42.40
21805;DHT22;11064;47.102;15.452;2023-04-06T12:59:17;10.80;41.20
21805;DHT22;11064;47.102;15.452;2023-04-06T13:01:43;10.60;41.00
21805;DHT22;11064;47.102;15.452;2023-04-06T13:04:09;10.40;41.10
21805;DHT22;11064;47.102;15.452;2023-04-06T13:06:35;10.60;41.90
21805;DHT22;11064;47.102;15.452;2023-04-06T13:09:01;10.80;42.50
21805;DHT22;11064;47.102;15.452;2023-04-06T13:11:27;10.80;40.60
21805;DHT22;11064;47.102;15.452;2023-04-06T13:13:53;10.70;40.90
21805;DHT22;11064;47.102;15.452;2023-04-06T13:16:19;10.80;41.60
21805;DHT22;11064;47.102;15.452;2023-04-06T13:18:46;10.90;41.10
21805;DHT22;11064;47.102;15.452;2023-04-06T13:21:16;11.00;41.00
21805;DHT22;11064;47.102;15.452;2023-04-06T13:23:42;11.00;40.90
21805;DHT22;11064;47.102;15.452;2023-04-06T13:26:08;11.00;42.40
21805;DHT22;11064;47.102;15.452;2023-04-06T13:28:35;11.00;41.20
21805;DHT22;11064;47.102;15.452;2023-04-06T13:31:03;11.10;41.70
21805;DHT22;11064;47.102;15.452;2023-04-06T13:33:30;11.00;41.10
21805;DHT22;11064;47.102;15.452;2023-04-06T13:35:56;10.90;41.20
21805;DHT22;11064;47.102;15.452;2023-04-06T13:38:22;10.90;41.40
21805;DHT22;11064;47.102;15.452;2023-04-06T13:40:49;10.90;42.00
21805;DHT22;11064;47.102;15.452;2023-04-06T13:43:15;10.80;42.50
21805;DHT22;11064;47.102;15.452;2023-04-06T13:45:41;10.90;41.50
21805;DHT22;11064;47.102;15.452;2023-04-06T13:48:07;10.90;41.80
21805;DHT22;11064;47.102;15.452;2023-04-06T13:50:33;10.90;41.70
21805;DHT22;11064;47.102;15.452;2023-04-06T13:52:59;10.80;41.10
21805;DHT22;11064;47.102;15.452;2023-04-06T13:55:25;10.80;41.00
21805;DHT22;11064;47.102;15.452;2023-04-06T13:57:51;10.80;41.00
21805;DHT22;11064;47.102;15.452;2023-04-06T14:00:17;10.80;41.80
21805;DHT22;11064;47.102;15.452;2023-04-06T14:02:43;10.70;40.70
21805;DHT22;11064;47.102;15.452;2023-04-06T14:05:10;10.60;41.30
21805;DHT22;11064;47.102;15.452;2023-04-06T14:07:36;10.70;42.20
21805;DHT22;11064;47.102;15.452;2023-04-06T14:10:02;10.50;42.00
21805;DHT22;11064;47.102;15.452;2023-04-06T14:12:28;10.50;40.80
21805;DHT22;11064;47.102;15.452;2023-04-06T14:14:54;10.60;41.60
21805;DHT22;11064;47.102;15.452;2023-04-06T14:17:20;10.70;41.60
21805;DHT22;11064;47.102;15.452;2023-04-06T14:19:46;10.70;41.20
21805;DHT22;11064;47.102;15.452;2023-04-06T14:22:13;10.70;41.50
21805;DHT22;11064;47.102;15.452;2023-04-06T14:24:39;10.80;41.60
21805;DHT22;11064;47.102;15.452;2023-04-06T14:27:05;10.60;39.90
21805;DHT22;11064;47.102;15.452;2023-04-06T14:29:31;10.60;40.50
21805;DHT22;11064;47.102;15.452;2023-04-06T14:31:56;10.60;41.10
21805;DHT22;11064;47.102;15.452;2023-04-06T14:34:28;10.60;41.00
21805;DHT22;11064;47.102;15.452;2023-04-06T14:36:54;10.60;40.50
21805;DHT22;11064;47.102;15.452;2023-04-06T14:39:20;10.60;41.10
21805;DHT22;11064;47.102;15.452;2023-04-06T14:41:46;10.50;40.60
21805;DHT22;11064;47.102;15.452;2023-04-06T14:44:15;10.40;40.60
21805;DHT22;11064;47.102;15.452;2023-04-06T14:46:42;10.40;41.40
21805;DHT22;11064;47.102;15.452;2023-04-06T14:49:08;10.40;41.20
21805;DHT22;11064;47.102;15.452;2023-04-06T14:51:36;10.40;41.10
21805;DHT22;11064;47.102;15.452;2023-04-06T14:54:02;10.40;40.70
21805;DHT22;11064;47.102;15.452;2023-04-06T14:56:28;10.30;41.20
21805;DHT22;11064;47.102;15.452;2023-04-06T14:58:57;10.10;41.60
21805;DHT22;11064;47.102;15.452;2023-04-06T15:01:24;10.00;42.40
21805;DHT22;11064;47.102;15.452;2023-04-06T15:03:49;10.00;41.70
21805;DHT22;11064;47.102;15.452;2023-04-06T15:06:17;10.00;41.70
21805;DHT22;11064;47.102;15.452;2023-04-06T15:08:45;9.90;41.20
21805;DHT22;11064;47.102;15.452;2023-04-06T15:11:12;9.90;42.00
21805;DHT22;11064;47.102;15.452;2023-04-06T15:13:39;9.90;41.80
21805;DHT22;11064;47.102;15.452;2023-04-06T15:16:06;9.80;40.50
21805;DHT22;11064;47.102;15.452;2023-04-06T15:18:33;9.80;41.10
21805;DHT22;11064;47.102;15.452;2023-04-06T15:20:58;9.70;41.90
21805;DHT22;11064;47.102;15.452;2023-04-06T15:23:24;9.70;41.10
21805;DHT22;11064;47.102;15.452;2023-04-06T15:25:51;9.70;41.30
21805;DHT22;11064;47.102;15.452;2023-04-06T15:28:17;9.60;41.40
21805;DHT22;11064;47.102;15.452;2023-04-06T15:30:43;9.60;40.90
21805;DHT22;11064;47.102;15.452;2023-04-06T15:33:09;9.50;41.30
21805;DHT22;11064;47.102;15.452;2023-04-06T15:35:35;9.50;41.30
21805;DHT22;11064;47.102;15.452;2023-04-06T15:38:06;9.40;41.30
21805;DHT22;11064;47.102;15.452;2023-04-06T15:40:32;9.40;41.30
21805;DHT22;11064;47.102;15.452;2023-04-06T15:42:58;9.40;41.20
21805;DHT22;11064;47.102;15.452;2023-04-06T15:45:23;9.40;42.00
21805;DHT22;11064;47.102;15.452;2023-04-06T15:47:49;9.40;41.20
21805;DHT22;11064;47.102;15.452;2023-04-06T15:50:15;9.40;40.60
21805;DHT22;11064;47.102;15.452;2023-04-06T15:52:41;9.40;41.40
21805;DHT22;11064;47.102;15.452;2023-04-06T15:55:08;9.30;41.40
21805;DHT22;11064;47.102;15.452;2023-04-06T15:57:34;9.30;41.80
21805;DHT22;11064;47.102;15.452;2023-04-06T16:00:00;9.20;41.80
21805;DHT22;11064;47.102;15.452;2023-04-06T16:02:27;9.20;41.40
21805;DHT22;11064;47.102;15.452;2023-04-06T16:04:57;9.20;42.00
21805;DHT22;11064;47.102;15.452;2023-04-06T16:07:23;9.20;43.50
21805;DHT22;11064;47.102;15.452;2023-04-06T16:09:50;9.10;42.70
21805;DHT22;11064;47.102;15.452;2023-04-06T16:12:17;9.10;42.80
21805;DHT22;11064;47.102;15.452;2023-04-06T16:14:43;9.10;42.40
21805;DHT22;11064;47.102;15.452;2023-04-06T16:17:10;9.00;43.60
21805;DHT22;11064;47.102;15.452;2023-04-06T16:19:37;8.90;42.80
21805;DHT22;11064;47.102;15.452;2023-04-06T16:22:02;8.90;43.10
21805;DHT22;11064;47.102;15.452;2023-04-06T16:24:29;8.80;43.40
21805;DHT22;11064;47.102;15.452;2023-04-06T16:26:55;8.70;42.70
21805;DHT22;11064;47.102;15.452;2023-04-06T16:29:22;8.70;43.40
21805;DHT22;11064;47.102;15.452;2023-04-06T16:31:48;8.60;43.20
21805;DHT22;11064;47.102;15.452;2023-04-06T16:34:14;8.70;42.90
21805;DHT22;11064;47.102;15.452;2023-04-06T16:36:40;8.70;42.40
21805;DHT22;11064;47.102;15.452;2023-04-06T16:39:07;8.60;42.40
21805;DHT22;11064;47.102;15.452;2023-04-06T16:41:34;8.50;43.20
21805;DHT22;11064;47.102;15.452;2023-04-06T16:44:01;8.40;44.50
21805;DHT22;11064;47.102;15.452;2023-04-06T16:46:32;8.30;44.40
21805;DHT22;11064;47.102;15.452;2023-04-06T16:48:59;8.30;44.40
21805;DHT22;11064;47.102;15.452;2023-04-06T16:51:26;8.40;44.80
21805;DHT22;11064;47.102;15.452;2023-04-06T16:53:52;8.40;44.50
21805;DHT22;11064;47.102;15.452;2023-04-06T16:56:18;8.30;44.30
21805;DHT22;11064;47.102;15.452;2023-04-06T16:58:44;8.20;45.10
21805;DHT22;11064;47.102;15.452;2023-04-06T17:01:20;8.10;44.50
21805;DHT22;11064;47.102;15.452;2023-04-06T17:03:46;8.10;44.70
21805;DHT22;11064;47.102;15.452;2023-04-06T17:06:13;8.00;45.20
21805;DHT22;11064;47.102;15.452;2023-04-06T17:08:39;8.00;44.90
21805;DHT22;11064;47.102;15.452;2023-04-06T17:11:05;7.90;45.20
21805;DHT22;11064;47.102;15.452;2023-04-06T17:13:31;7.80;45.40
21805;DHT22;11064;47.102;15.452;2023-04-06T17:15:57;7.70;45.50
21805;DHT22;11064;47.102;15.452;2023-04-06T17:18:23;7.70;45.30
21805;DHT22;11064;47.102;15.452;2023-04-06T17:20:49;7.70;45.70
21805;DHT22;11064;47.102;15.452;2023-04-06T17:23:15;7.60;45.40
21805;DHT22;11064;47.102;15.452;2023-04-06T17:25:41;7.60;45.30
21805;DHT22;11064;47.102;15.452;2023-04-06T17:28:06;7.60;45.30
21805;DHT22;11064;47.102;15.452;2023-04-06T17:30:32;7.60;45.50
21805;DHT22;11064;47.102;15.452;2023-04-06T17:32:59;7.40;45.80
21805;DHT22;11064;47.102;15.452;2023-04-06T17:35:26;7.30;46.40
21805;DHT22;11064;47.102;15.452;2023-04-06T17:37:51;7.20;47.00
21805;DHT22;11064;47.102;15.452;2023-04-06T17:40:17;7.10;46.50
21805;DHT22;11064;47.102;15.452;2023-04-06T17:42:44;7.20;46.70
21805;DHT22;11064;47.102;15.452;2023-04-06T17:45:10;7.10;46.80
21805;DHT22;11064;47.102;15.452;2023-04-06T17:47:36;7.00;47.00
21805;DHT22;11064;47.102;15.452;2023-04-06T17:50:02;7.00;47.30
21805;DHT22;11064;47.102;15.452;2023-04-06T17:52:28;6.80;47.70
21805;DHT22;11064;47.102;15.452;2023-04-06T17:54:55;6.80;47.70
21805;DHT22;11064;47.102;15.452;2023-04-06T17:57:21;6.90;47.80
21805;DHT22;11064;47.102;15.452;2023-04-06T17:59:47;6.80;48.30
21805;DHT22;11064;47.102;15.452;2023-04-06T18:02:13;6.80;48.30
21805;DHT22;11064;47.102;15.452;2023-04-06T18:04:38;6.80;48.50
21805;DHT22;11064;47.102;15.452;2023-04-06T18:07:08;6.80;48.50
21805;DHT22;11064;47.102;15.452;2023-04-06T18:09:35;6.70;48.70
21805;DHT22;11064;47.102;15.452;2023-04-06T18:12:01;6.60;49.30
21805;DHT22;11064;47.102;15.452;2023-04-06T18:14:27;6.60;49.90
21805;DHT22;11064;47.102;15.452;2023-04-06T18:16:53;6.50;49.90
21805;DHT22;11064;47.102;15.452;2023-04-06T18:19:19;6.50;50.00
21805;DHT22;11064;47.102;15.452;2023-04-06T18:21:45;6.30;50.60
21805;DHT22;11064;47.102;15.452;2023-04-06T18:24:10;6.10;51.20
21805;DHT22;11064;47.102;15.452;2023-04-06T18:26:36;6.10;51.50
21805;DHT22;11064;47.102;15.452;2023-04-06T18:29:02;6.00;52.00
21805;DHT22;11064;47.102;15.452;2023-04-06T18:31:28;5.80;52.50
21805;DHT22;11064;47.102;15.452;2023-04-06T18:33:55;5.80;52.90
21805;DHT22;11064;47.102;15.452;2023-04-06T18:36:21;5.80;53.00
21805;DHT22;11064;47.102;15.452;2023-04-06T18:38:47;5.80;53.00
21805;DHT22;11064;47.102;15.452;2023-04-06T18:41:14;5.60;53.50
21805;DHT22;11064;47.102;15.452;2023-04-06T18:43:42;5.60;53.80
21805;DHT22;11064;47.102;15.452;2023-04-06T18:46:12;5.50;54.00
21805;DHT22;11064;47.102;15.452;2023-04-06T18:48:39;5.50;54.10
21805;DHT22;11064;47.102;15.452;2023-04-06T18:51:04;5.60;54.00
21805;DHT22;11064;47.102;15.452;2023-04-06T18:53:30;5.50;54.20
21805;DHT22;11064;47.102;15.452;2023-04-06T18:55:56;5.40;54.60
21805;DHT22;11064;47.102;15.452;2023-04-06T18:58:23;5.30;54.90
21805;DHT22;11064;47.102;15.452;2023-04-06T19:00:51;5.20;55.30
21805;DHT22;11064;47.102;15.452;2023-04-06T19:03:16;5.20;55.40
21805;DHT22;11064;47.102;15.452;2023-04-06T19:05:43;5.20;55.70
21805;DHT22;11064;47.102;15.452;2023-04-06T19:08:10;5.00;55.90
21805;DHT22;11064;47.102;15.452;2023-04-06T19:10:36;4.80;56.20
21805;DHT22;11064;47.102;15.452;2023-04-06T19:13:03;4.70;57.00
21805;DHT22;11064;47.102;15.452;2023-04-06T19:15:29;4.40;57.60
21805;DHT22;11064;47.102;15.452;2023-04-06T19:17:55;4.30;58.60
21805;DHT22;11064;47.102;15.452;2023-04-06T19:20:21;4.40;58.50
21805;DHT22;11064;47.102;15.452;2023-04-06T19:22:47;4.30;58.10
21805;DHT22;11064;47.102;15.452;2023-04-06T19:25:17;4.10;58.40
21805;DHT22;11064;47.102;15.452;2023-04-06T19:27:43;3.90;58.90
21805;DHT22;11064;47.102;15.452;2023-04-06T19:30:10;3.80;59.50
21805;DHT22;11064;47.102;15.452;2023-04-06T19:32:37;3.80;59.70
21805;DHT22;11064;47.102;15.452;2023-04-06T19:35:04;3.80;59.90
21805;DHT22;11064;47.102;15.452;2023-04-06T19:37:35;3.70;60.10